sensor_id;sensor_type;location;lat;lon;timestamp;P1;durP1;ratioP1;P2;durP2;ratioP2
72761;SDS011;60886;55.034;73.150;2022-07-17T00:01:48;9.27;;;3.72;;
72761;SDS011;60886;55.034;73.150;2022-07-17T00:04:15;7.63;;;3.83;;
72761;SDS011;60886;55.034;73.150;2022-07-17T00:06:51;10.50;;;3.85;;
72761;SDS011;60886;55.034;73.150;2022-07-17T00:09:23;9.00;;;3.80;;
72761;SDS011;60886;55.034;73.150;2022-07-17T00:11:49;8.10;;;3.15;;
72761;SDS011;60886;55.034;73.150;2022-07-17T00:14:16;9.52;;;3.83;;
72761;SDS011;60886;55.034;73.150;2022-07-17T00:16:52;8.88;;;3.40;;
72761;SDS011;60886;55.034;73.150;2022-07-17T00:19:24;8.43;;;3.55;;
72761;SDS011;60886;55.034;73.150;2022-07-17T00:21:51;7.40;;;3.53;;
72761;SDS011;60886;55.034;73.150;2022-07-17T00:24:27;11.70;;;4.28;;
72761;SDS011;60886;55.034;73.150;2022-07-17T00:26:54;8.43;;;3.00;;
72761;SDS011;60886;55.034;73.150;2022-07-17T00:29:21;6.47;;;2.97;;
72761;SDS011;60886;55.034;73.150;2022-07-17T00:31:48;6.80;;;2.80;;
72761;SDS011;60886;55.034;73.150;2022-07-17T00:34:15;7.53;;;2.70;;
72761;SDS011;60886;55.034;73.150;2022-07-17T00:36:42;5.82;;;2.25;;
72761;SDS011;60886;55.034;73.150;2022-07-17T00:39:08;7.10;;;2.20;;
72761;SDS011;60886;55.034;73.150;2022-07-17T00:41:35;5.63;;;2.00;;
72761;SDS011;60886;55.034;73.150;2022-07-17T00:44:05;5.68;;;2.33;;
72761;SDS011;60886;55.034;73.150;2022-07-17T00:46:33;6.85;;;2.17;;
72761;SDS011;60886;55.034;73.150;2022-07-17T00:49:00;4.90;;;1.90;;
72761;SDS011;60886;55.034;73.150;2022-07-17T00:51:26;6.43;;;2.00;;
72761;SDS011;60886;55.034;73.150;2022-07-17T00:53:53;5.30;;;1.98;;
72761;SDS011;60886;55.034;73.150;2022-07-17T00:56:21;6.47;;;2.30;;
72761;SDS011;60886;55.034;73.150;2022-07-17T00:58:49;6.88;;;2.08;;
72761;SDS011;60886;55.034;73.150;2022-07-17T01:01:19;5.20;;;2.10;;
72761;SDS011;60886;55.034;73.150;2022-07-17T01:03:55;5.57;;;2.35;;
72761;SDS011;60886;55.034;73.150;2022-07-17T01:06:21;6.70;;;2.10;;
72761;SDS011;60886;55.034;73.150;2022-07-17T01:08:48;5.93;;;2.30;;
72761;SDS011;60886;55.034;73.150;2022-07-17T01:11:14;6.65;;;2.42;;
72761;SDS011;60886;55.034;73.150;2022-07-17T01:13:41;6.10;;;2.20;;
72761;SDS011;60886;55.034;73.150;2022-07-17T01:16:10;6.15;;;2.00;;
72761;SDS011;60886;55.034;73.150;2022-07-17T01:18:36;9.13;;;2.40;;
72761;SDS011;60886;55.034;73.150;2022-07-17T01:21:04;8.80;;;2.42;;
72761;SDS011;60886;55.034;73.150;2022-07-17T01:23:31;6.53;;;2.45;;
72761;SDS011;60886;55.034;73.150;2022-07-17T01:25:58;6.03;;;2.60;;
72761;SDS011;60886;55.034;73.150;2022-07-17T01:28:24;7.45;;;3.13;;
72761;SDS011;60886;55.034;73.150;2022-07-17T01:30:52;9.80;;;3.25;;
72761;SDS011;60886;55.034;73.150;2022-07-17T01:33:19;6.78;;;2.88;;
72761;SDS011;60886;55.034;73.150;2022-07-17T01:35:47;8.88;;;3.67;;
72761;SDS011;60886;55.034;73.150;2022-07-17T01:38:17;7.45;;;3.15;;
72761;SDS011;60886;55.034;73.150;2022-07-17T01:40:43;7.88;;;3.85;;
72761;SDS011;60886;55.034;73.150;2022-07-17T01:43:09;12.07;;;3.78;;
72761;SDS011;60886;55.034;73.150;2022-07-17T01:45:36;8.75;;;3.40;;
72761;SDS011;60886;55.034;73.150;2022-07-17T01:48:22;9.13;;;3.88;;
72761;SDS011;60886;55.034;73.150;2022-07-17T01:50:49;13.10;;;4.88;;
72761;SDS011;60886;55.034;73.150;2022-07-17T01:53:16;9.57;;;3.63;;
72761;SDS011;60886;55.034;73.150;2022-07-17T01:55:42;11.57;;;4.35;;
72761;SDS011;60886;55.034;73.150;2022-07-17T01:58:14;8.32;;;3.10;;
72761;SDS011;60886;55.034;73.150;2022-07-17T02:00:50;7.45;;;2.50;;
72761;SDS011;60886;55.034;73.150;2022-07-17T02:03:17;11.13;;;3.08;;
72761;SDS011;60886;55.034;73.150;2022-07-17T02:05:45;15.98;;;3.25;;
72761;SDS011;60886;55.034;73.150;2022-07-17T02:08:11;14.55;;;3.70;;
72761;SDS011;60886;55.034;73.150;2022-07-17T02:10:38;10.32;;;4.47;;
72761;SDS011;60886;55.034;73.150;2022-07-17T02:13:04;14.43;;;4.10;;
72761;SDS011;60886;55.034;73.150;2022-07-17T02:15:31;16.73;;;3.85;;
72761;SDS011;60886;55.034;73.150;2022-07-17T02:17:58;17.10;;;3.80;;
72761;SDS011;60886;55.034;73.150;2022-07-17T02:20:24;18.55;;;3.97;;
72761;SDS011;60886;55.034;73.150;2022-07-17T02:22:51;19.30;;;3.67;;
72761;SDS011;60886;55.034;73.150;2022-07-17T02:25:17;21.23;;;5.30;;
72761;SDS011;60886;55.034;73.150;2022-07-17T02:27:50;18.02;;;3.97;;
72761;SDS011;60886;55.034;73.150;2022-07-17T02:30:23;22.75;;;5.80;;
72761;SDS011;60886;55.034;73.150;2022-07-17T02:32:49;31.80;;;3.70;;
72761;SDS011;60886;55.034;73.150;2022-07-17T02:35:16;11.45;;;3.00;;
72761;SDS011;60886;55.034;73.150;2022-07-17T02:37:42;15.52;;;3.30;;
72761;SDS011;60886;55.034;73.150;2022-07-17T02:40:09;18.45;;;4.18;;
72761;SDS011;60886;55.034;73.150;2022-07-17T02:42:36;22.65;;;4.70;;
72761;SDS011;60886;55.034;73.150;2022-07-17T02:45:02;28.13;;;4.70;;
72761;SDS011;60886;55.034;73.150;2022-07-17T02:47:30;24.20;;;4.90;;
72761;SDS011;60886;55.034;73.150;2022-07-17T02:49:58;9.63;;;3.17;;
72761;SDS011;60886;55.034;73.150;2022-07-17T02:52:27;8.10;;;2.50;;
72761;SDS011;60886;55.034;73.150;2022-07-17T02:54:54;6.25;;;2.42;;
72761;SDS011;60886;55.034;73.150;2022-07-17T02:57:20;9.15;;;2.67;;
72761;SDS011;60886;55.034;73.150;2022-07-17T02:59:51;6.38;;;2.20;;
72761;SDS011;60886;55.034;73.150;2022-07-17T03:02:25;7.85;;;2.47;;
72761;SDS011;60886;55.034;73.150;2022-07-17T03:04:54;6.15;;;2.90;;
72761;SDS011;60886;55.034;73.150;2022-07-17T03:07:20;5.30;;;2.50;;
72761;SDS011;60886;55.034;73.150;2022-07-17T03:09:46;14.57;;;4.55;;
72761;SDS011;60886;55.034;73.150;2022-07-17T03:12:13;9.52;;;3.55;;
72761;SDS011;60886;55.034;73.150;2022-07-17T03:14:40;24.05;;;6.50;;
72761;SDS011;60886;55.034;73.150;2022-07-17T03:17:06;46.50;;;8.55;;
72761;SDS011;60886;55.034;73.150;2022-07-17T03:19:40;31.42;;;6.53;;
72761;SDS011;60886;55.034;73.150;2022-07-17T03:22:06;28.38;;;5.60;;
72761;SDS011;60886;55.034;73.150;2022-07-17T03:24:37;29.52;;;6.38;;
72761;SDS011;60886;55.034;73.150;2022-07-17T03:27:03;35.55;;;7.30;;
72761;SDS011;60886;55.034;73.150;2022-07-17T03:29:30;29.52;;;5.78;;
72761;SDS011;60886;55.034;73.150;2022-07-17T03:31:56;14.13;;;4.53;;
72761;SDS011;60886;55.034;73.150;2022-07-17T03:34:24;84.53;;;12.35;;
72761;SDS011;60886;55.034;73.150;2022-07-17T03:36:51;54.60;;;9.10;;
72761;SDS011;60886;55.034;73.150;2022-07-17T03:39:20;46.22;;;8.38;;
72761;SDS011;60886;55.034;73.150;2022-07-17T03:41:47;33.13;;;6.40;;
72761;SDS011;60886;55.034;73.150;2022-07-17T03:44:13;44.40;;;8.07;;
72761;SDS011;60886;55.034;73.150;2022-07-17T03:46:39;40.92;;;8.13;;
72761;SDS011;60886;55.034;73.150;2022-07-17T03:49:06;40.85;;;7.88;;
72761;SDS011;60886;55.034;73.150;2022-07-17T03:51:32;39.75;;;7.40;;
72761;SDS011;60886;55.034;73.150;2022-07-17T03:53:59;27.77;;;6.25;;
72761;SDS011;60886;55.034;73.150;2022-07-17T03:56:34;36.13;;;6.78;;
72761;SDS011;60886;55.034;73.150;2022-07-17T03:59:01;25.20;;;4.80;;
72761;SDS011;60886;55.034;73.150;2022-07-17T04:01:37;7.50;;;3.00;;
72761;SDS011;60886;55.034;73.150;2022-07-17T04:04:04;7.30;;;3.10;;
72761;SDS011;60886;55.034;73.150;2022-07-17T04:06:30;9.27;;;3.05;;
72761;SDS011;60886;55.034;73.150;2022-07-17T04:09:06;7.90;;;2.85;;
72761;SDS011;60886;55.034;73.150;2022-07-17T04:11:32;7.00;;;2.78;;
72761;SDS011;60886;55.034;73.150;2022-07-17T04:13:59;5.60;;;2.70;;
72761;SDS011;60886;55.034;73.150;2022-07-17T04:16:25;6.63;;;2.80;;
72761;SDS011;60886;55.034;73.150;2022-07-17T04:18:52;5.80;;;2.70;;
72761;SDS011;60886;55.034;73.150;2022-07-17T04:21:29;5.82;;;3.00;;
72761;SDS011;60886;55.034;73.150;2022-07-17T04:23:55;8.13;;;2.60;;
72761;SDS011;60886;55.034;73.150;2022-07-17T04:26:22;8.38;;;2.70;;
72761;SDS011;60886;55.034;73.150;2022-07-17T04:28:48;6.35;;;2.88;;
72761;SDS011;60886;55.034;73.150;2022-07-17T04:31:14;7.72;;;3.05;;
72761;SDS011;60886;55.034;73.150;2022-07-17T04:33:41;5.68;;;2.40;;
72761;SDS011;60886;55.034;73.150;2022-07-17T04:36:17;6.43;;;2.78;;
72761;SDS011;60886;55.034;73.150;2022-07-17T04:38:43;6.93;;;2.80;;
72761;SDS011;60886;55.034;73.150;2022-07-17T04:41:10;5.75;;;2.30;;
72761;SDS011;60886;55.034;73.150;2022-07-17T04:43:36;8.60;;;2.78;;
72761;SDS011;60886;55.034;73.150;2022-07-17T04:46:02;11.23;;;3.50;;
72761;SDS011;60886;55.034;73.150;2022-07-17T04:48:29;8.75;;;3.15;;
72761;SDS011;60886;55.034;73.150;2022-07-17T04:51:02;8.77;;;2.80;;
72761;SDS011;60886;55.034;73.150;2022-07-17T04:53:28;6.35;;;2.40;;
72761;SDS011;60886;55.034;73.150;2022-07-17T04:55:56;6.47;;;2.45;;
72761;SDS011;60886;55.034;73.150;2022-07-17T04:58:22;5.70;;;2.30;;
72761;SDS011;60886;55.034;73.150;2022-07-17T05:00:49;5.20;;;2.10;;
72761;SDS011;60886;55.034;73.150;2022-07-17T05:03:15;6.40;;;2.50;;
72761;SDS011;60886;55.034;73.150;2022-07-17T05:05:41;7.35;;;2.58;;
72761;SDS011;60886;55.034;73.150;2022-07-17T05:08:07;8.85;;;2.72;;
72761;SDS011;60886;55.034;73.150;2022-07-17T05:10:34;15.15;;;7.40;;
72761;SDS011;60886;55.034;73.150;2022-07-17T05:13:00;7.82;;;3.65;;
72761;SDS011;60886;55.034;73.150;2022-07-17T05:15:27;5.55;;;2.30;;
72761;SDS011;60886;55.034;73.150;2022-07-17T05:17:53;7.35;;;2.33;;
72761;SDS011;60886;55.034;73.150;2022-07-17T05:20:19;6.15;;;2.30;;
72761;SDS011;60886;55.034;73.150;2022-07-17T05:22:46;8.30;;;2.20;;
72761;SDS011;60886;55.034;73.150;2022-07-17T05:25:12;7.57;;;2.40;;
72761;SDS011;60886;55.034;73.150;2022-07-17T05:27:38;5.40;;;2.20;;
72761;SDS011;60886;55.034;73.150;2022-07-17T05:30:11;5.65;;;2.20;;
72761;SDS011;60886;55.034;73.150;2022-07-17T05:32:38;6.20;;;2.00;;
72761;SDS011;60886;55.034;73.150;2022-07-17T05:35:04;6.68;;;2.30;;
72761;SDS011;60886;55.034;73.150;2022-07-17T05:37:32;5.70;;;1.90;;
72761;SDS011;60886;55.034;73.150;2022-07-17T05:39:59;27.88;;;15.80;;
72761;SDS011;60886;55.034;73.150;2022-07-17T05:42:26;6.10;;;2.30;;
72761;SDS011;60886;55.034;73.150;2022-07-17T05:44:52;5.35;;;1.98;;
72761;SDS011;60886;55.034;73.150;2022-07-17T05:47:18;5.57;;;2.28;;
72761;SDS011;60886;55.034;73.150;2022-07-17T05:49:45;7.05;;;2.10;;
72761;SDS011;60886;55.034;73.150;2022-07-17T05:52:11;7.22;;;2.22;;
72761;SDS011;60886;55.034;73.150;2022-07-17T05:54:47;4.95;;;1.83;;
72761;SDS011;60886;55.034;73.150;2022-07-17T05:57:14;5.63;;;1.95;;
72761;SDS011;60886;55.034;73.150;2022-07-17T05:59:45;16.02;;;2.80;;
72761;SDS011;60886;55.034;73.150;2022-07-17T06:02:21;24.10;;;4.35;;
72761;SDS011;60886;55.034;73.150;2022-07-17T06:04:48;6.45;;;1.98;;
72761;SDS011;60886;55.034;73.150;2022-07-17T06:07:14;10.45;;;2.83;;
72761;SDS011;60886;55.034;73.150;2022-07-17T06:09:41;6.45;;;2.40;;
72761;SDS011;60886;55.034;73.150;2022-07-17T06:12:07;5.38;;;2.03;;
72761;SDS011;60886;55.034;73.150;2022-07-17T06:14:33;6.65;;;2.00;;
72761;SDS011;60886;55.034;73.150;2022-07-17T06:17:04;5.50;;;2.10;;
72761;SDS011;60886;55.034;73.150;2022-07-17T06:19:31;6.03;;;2.00;;
72761;SDS011;60886;55.034;73.150;2022-07-17T06:21:58;5.72;;;1.90;;
72761;SDS011;60886;55.034;73.150;2022-07-17T06:24:24;7.68;;;2.00;;
72761;SDS011;60886;55.034;73.150;2022-07-17T06:26:51;6.65;;;1.63;;
72761;SDS011;60886;55.034;73.150;2022-07-17T06:29:22;12.27;;;2.58;;
72761;SDS011;60886;55.034;73.150;2022-07-17T06:31:49;7.55;;;2.30;;
72761;SDS011;60886;55.034;73.150;2022-07-17T06:34:15;8.07;;;1.98;;
72761;SDS011;60886;55.034;73.150;2022-07-17T06:36:42;7.40;;;1.95;;
72761;SDS011;60886;55.034;73.150;2022-07-17T06:39:09;7.03;;;2.83;;
72761;SDS011;60886;55.034;73.150;2022-07-17T06:41:35;6.53;;;1.92;;
72761;SDS011;60886;55.034;73.150;2022-07-17T06:44:03;8.85;;;2.22;;
72761;SDS011;60886;55.034;73.150;2022-07-17T06:46:30;6.07;;;1.80;;
72761;SDS011;60886;55.034;73.150;2022-07-17T06:49:00;5.00;;;1.70;;
72761;SDS011;60886;55.034;73.150;2022-07-17T06:51:26;5.15;;;1.90;;
72761;SDS011;60886;55.034;73.150;2022-07-17T06:53:52;5.00;;;1.70;;
72761;SDS011;60886;55.034;73.150;2022-07-17T06:56:28;6.88;;;1.80;;
72761;SDS011;60886;55.034;73.150;2022-07-17T06:58:54;6.93;;;3.38;;
72761;SDS011;60886;55.034;73.150;2022-07-17T07:01:25;7.28;;;1.88;;
72761;SDS011;60886;55.034;73.150;2022-07-17T07:03:52;5.05;;;1.75;;
72761;SDS011;60886;55.034;73.150;2022-07-17T07:06:18;6.25;;;1.42;;
72761;SDS011;60886;55.034;73.150;2022-07-17T07:08:45;4.80;;;1.60;;
72761;SDS011;60886;55.034;73.150;2022-07-17T07:11:11;7.95;;;2.10;;
72761;SDS011;60886;55.034;73.150;2022-07-17T07:13:37;8.00;;;1.70;;
72761;SDS011;60886;55.034;73.150;2022-07-17T07:16:04;8.50;;;1.90;;
72761;SDS011;60886;55.034;73.150;2022-07-17T07:18:30;5.00;;;1.70;;
72761;SDS011;60886;55.034;73.150;2022-07-17T07:20:57;4.95;;;1.60;;
72761;SDS011;60886;55.034;73.150;2022-07-17T07:23:25;5.88;;;1.60;;
72761;SDS011;60886;55.034;73.150;2022-07-17T07:25:51;5.00;;;1.50;;
72761;SDS011;60886;55.034;73.150;2022-07-17T07:28:17;4.60;;;1.60;;
72761;SDS011;60886;55.034;73.150;2022-07-17T07:30:44;5.28;;;1.80;;
72761;SDS011;60886;55.034;73.150;2022-07-17T07:33:10;4.60;;;1.50;;
72761;SDS011;60886;55.034;73.150;2022-07-17T07:35:37;11.85;;;1.65;;
72761;SDS011;60886;55.034;73.150;2022-07-17T07:38:03;4.40;;;1.40;;
72761;SDS011;60886;55.034;73.150;2022-07-17T07:40:30;4.18;;;1.50;;
72761;SDS011;60886;55.034;73.150;2022-07-17T07:42:57;5.75;;;1.50;;
72761;SDS011;60886;55.034;73.150;2022-07-17T07:45:23;6.85;;;2.40;;
72761;SDS011;60886;55.034;73.150;2022-07-17T07:47:50;6.10;;;1.52;;
72761;SDS011;60886;55.034;73.150;2022-07-17T07:50:17;4.90;;;1.42;;
72761;SDS011;60886;55.034;73.150;2022-07-17T07:52:47;4.93;;;1.58;;
72761;SDS011;60886;55.034;73.150;2022-07-17T07:55:14;6.10;;;1.90;;
72761;SDS011;60886;55.034;73.150;2022-07-17T07:57:41;5.70;;;1.60;;
72761;SDS011;60886;55.034;73.150;2022-07-17T08:00:08;6.35;;;1.83;;
72761;SDS011;60886;55.034;73.150;2022-07-17T08:02:41;5.72;;;1.80;;
72761;SDS011;60886;55.034;73.150;2022-07-17T08:05:07;5.28;;;1.63;;
72761;SDS011;60886;55.034;73.150;2022-07-17T08:07:35;5.32;;;1.60;;
72761;SDS011;60886;55.034;73.150;2022-07-17T08:10:02;6.22;;;2.10;;
72761;SDS011;60886;55.034;73.150;2022-07-17T08:12:32;4.57;;;1.60;;
72761;SDS011;60886;55.034;73.150;2022-07-17T08:15:07;5.90;;;1.80;;
72761;SDS011;60886;55.034;73.150;2022-07-17T08:17:34;7.13;;;2.00;;
72761;SDS011;60886;55.034;73.150;2022-07-17T08:20:01;6.63;;;1.80;;
72761;SDS011;60886;55.034;73.150;2022-07-17T08:22:27;5.78;;;1.80;;
72761;SDS011;60886;55.034;73.150;2022-07-17T08:25:03;5.10;;;1.80;;
72761;SDS011;60886;55.034;73.150;2022-07-17T08:27:37;5.28;;;1.83;;
72761;SDS011;60886;55.034;73.150;2022-07-17T08:30:05;5.40;;;1.95;;
72761;SDS011;60886;55.034;73.150;2022-07-17T08:32:33;5.53;;;1.80;;
72761;SDS011;60886;55.034;73.150;2022-07-17T08:35:00;5.78;;;1.77;;
72761;SDS011;60886;55.034;73.150;2022-07-17T08:37:26;5.85;;;1.70;;
72761;SDS011;60886;55.034;73.150;2022-07-17T08:39:53;6.90;;;2.10;;
72761;SDS011;60886;55.034;73.150;2022-07-17T08:42:20;5.32;;;1.95;;
72761;SDS011;60886;55.034;73.150;2022-07-17T08:44:46;6.75;;;2.00;;
72761;SDS011;60886;55.034;73.150;2022-07-17T08:47:13;6.50;;;1.90;;
72761;SDS011;60886;55.034;73.150;2022-07-17T08:49:43;6.45;;;1.90;;
72761;SDS011;60886;55.034;73.150;2022-07-17T08:52:11;5.72;;;1.95;;
72761;SDS011;60886;55.034;73.150;2022-07-17T08:54:39;6.05;;;2.00;;
72761;SDS011;60886;55.034;73.150;2022-07-17T08:57:07;7.43;;;2.08;;
72761;SDS011;60886;55.034;73.150;2022-07-17T08:59:35;6.40;;;2.20;;
72761;SDS011;60886;55.034;73.150;2022-07-17T09:02:03;5.93;;;2.03;;
72761;SDS011;60886;55.034;73.150;2022-07-17T09:04:31;5.53;;;2.00;;
72761;SDS011;60886;55.034;73.150;2022-07-17T09:07:01;5.88;;;1.90;;
72761;SDS011;60886;55.034;73.150;2022-07-17T09:09:49;7.00;;;2.10;;
72761;SDS011;60886;55.034;73.150;2022-07-17T09:12:27;4.78;;;1.80;;
72761;SDS011;60886;55.034;73.150;2022-07-17T09:14:55;5.88;;;2.00;;
72761;SDS011;60886;55.034;73.150;2022-07-17T09:17:22;5.13;;;1.90;;
72761;SDS011;60886;55.034;73.150;2022-07-17T09:20:02;6.75;;;1.95;;
72761;SDS011;60886;55.034;73.150;2022-07-17T09:22:29;5.97;;;2.00;;
72761;SDS011;60886;55.034;73.150;2022-07-17T09:24:56;6.55;;;2.10;;
72761;SDS011;60886;55.034;73.150;2022-07-17T09:32:20;6.18;;;1.90;;
72761;SDS011;60886;55.034;73.150;2022-07-17T09:34:54;4.78;;;1.73;;
72761;SDS011;60886;55.034;73.150;2022-07-17T09:37:23;5.10;;;1.85;;
72761;SDS011;60886;55.034;73.150;2022-07-17T09:39:50;6.00;;;2.13;;
72761;SDS011;60886;55.034;73.150;2022-07-17T09:45:00;7.28;;;2.10;;
72761;SDS011;60886;55.034;73.150;2022-07-17T09:47:35;5.00;;;1.85;;
72761;SDS011;60886;55.034;73.150;2022-07-17T09:50:06;5.22;;;1.98;;
72761;SDS011;60886;55.034;73.150;2022-07-17T09:52:35;6.55;;;2.13;;
72761;SDS011;60886;55.034;73.150;2022-07-17T09:55:04;8.52;;;2.40;;
72761;SDS011;60886;55.034;73.150;2022-07-17T09:57:32;5.00;;;1.90;;
72761;SDS011;60886;55.034;73.150;2022-07-17T10:00:05;5.50;;;1.90;;
72761;SDS011;60886;55.034;73.150;2022-07-17T10:02:41;5.50;;;2.10;;
72761;SDS011;60886;55.034;73.150;2022-07-17T10:05:11;7.45;;;2.22;;
72761;SDS011;60886;55.034;73.150;2022-07-17T10:07:41;5.10;;;1.88;;
72761;SDS011;60886;55.034;73.150;2022-07-17T10:10:08;5.65;;;2.30;;
72761;SDS011;60886;55.034;73.150;2022-07-17T10:12:40;6.32;;;2.00;;
72761;SDS011;60886;55.034;73.150;2022-07-17T10:15:13;5.90;;;2.03;;
72761;SDS011;60886;55.034;73.150;2022-07-17T10:17:41;5.47;;;2.10;;
72761;SDS011;60886;55.034;73.150;2022-07-17T10:20:08;8.23;;;2.20;;
72761;SDS011;60886;55.034;73.150;2022-07-17T10:22:43;5.25;;;2.00;;
72761;SDS011;60886;55.034;73.150;2022-07-17T10:25:14;7.05;;;2.03;;
72761;SDS011;60886;55.034;73.150;2022-07-17T10:27:45;6.38;;;2.03;;
72761;SDS011;60886;55.034;73.150;2022-07-17T10:30:18;7.00;;;2.05;;
72761;SDS011;60886;55.034;73.150;2022-07-17T10:32:56;7.72;;;1.92;;
72761;SDS011;60886;55.034;73.150;2022-07-17T10:35:29;5.40;;;2.30;;
72761;SDS011;60886;55.034;73.150;2022-07-17T10:38:10;5.78;;;2.22;;
72761;SDS011;60886;55.034;73.150;2022-07-17T10:40:43;5.30;;;2.15;;
72761;SDS011;60886;55.034;73.150;2022-07-17T10:43:10;6.20;;;2.22;;
72761;SDS011;60886;55.034;73.150;2022-07-17T10:45:37;6.65;;;2.30;;
72761;SDS011;60886;55.034;73.150;2022-07-17T10:48:09;5.35;;;1.90;;
72761;SDS011;60886;55.034;73.150;2022-07-17T10:50:44;6.28;;;2.00;;
72761;SDS011;60886;55.034;73.150;2022-07-17T10:55:47;6.63;;;2.30;;
72761;SDS011;60886;55.034;73.150;2022-07-17T10:58:21;7.82;;;2.45;;
72761;SDS011;60886;55.034;73.150;2022-07-17T11:01:06;6.32;;;2.15;;
72761;SDS011;60886;55.034;73.150;2022-07-17T11:08:40;6.55;;;2.25;;
72761;SDS011;60886;55.034;73.150;2022-07-17T11:11:36;5.55;;;2.17;;
72761;SDS011;60886;55.034;73.150;2022-07-17T11:14:15;6.35;;;2.25;;
72761;SDS011;60886;55.034;73.150;2022-07-17T11:19:22;5.15;;;1.90;;
72761;SDS011;60886;55.034;73.150;2022-07-17T11:21:49;6.97;;;2.30;;
72761;SDS011;60886;55.034;73.150;2022-07-17T11:24:16;6.07;;;2.30;;
72761;SDS011;60886;55.034;73.150;2022-07-17T11:26:43;6.35;;;2.08;;
72761;SDS011;60886;55.034;73.150;2022-07-17T11:29:10;5.57;;;2.30;;
72761;SDS011;60886;55.034;73.150;2022-07-17T11:31:37;12.32;;;2.55;;
72761;SDS011;60886;55.034;73.150;2022-07-17T11:34:05;7.00;;;2.17;;
72761;SDS011;60886;55.034;73.150;2022-07-17T11:36:35;6.75;;;2.20;;
72761;SDS011;60886;55.034;73.150;2022-07-17T11:39:17;6.20;;;2.58;;
72761;SDS011;60886;55.034;73.150;2022-07-17T11:41:45;6.13;;;2.30;;
72761;SDS011;60886;55.034;73.150;2022-07-17T11:44:14;5.70;;;2.40;;
72761;SDS011;60886;55.034;73.150;2022-07-17T11:46:46;5.60;;;2.38;;
72761;SDS011;60886;55.034;73.150;2022-07-17T11:49:23;6.72;;;2.40;;
72761;SDS011;60886;55.034;73.150;2022-07-17T11:51:58;6.30;;;1.90;;
72761;SDS011;60886;55.034;73.150;2022-07-17T11:54:26;5.93;;;2.08;;
72761;SDS011;60886;55.034;73.150;2022-07-17T11:56:57;6.25;;;2.40;;
72761;SDS011;60886;55.034;73.150;2022-07-17T11:59:33;6.78;;;2.75;;
72761;SDS011;60886;55.034;73.150;2022-07-17T12:04:53;6.28;;;2.63;;
72761;SDS011;60886;55.034;73.150;2022-07-17T12:07:23;5.82;;;2.33;;
72761;SDS011;60886;55.034;73.150;2022-07-17T12:09:52;6.30;;;2.22;;
72761;SDS011;60886;55.034;73.150;2022-07-17T12:14:52;6.22;;;2.33;;
72761;SDS011;60886;55.034;73.150;2022-07-17T12:17:19;6.55;;;2.55;;
72761;SDS011;60886;55.034;73.150;2022-07-17T12:19:47;6.00;;;2.38;;
72761;SDS011;60886;55.034;73.150;2022-07-17T12:22:14;7.22;;;2.40;;
72761;SDS011;60886;55.034;73.150;2022-07-17T12:24:43;6.53;;;2.30;;
72761;SDS011;60886;55.034;73.150;2022-07-17T12:27:21;7.80;;;2.38;;
72761;SDS011;60886;55.034;73.150;2022-07-17T12:29:49;6.45;;;2.50;;
72761;SDS011;60886;55.034;73.150;2022-07-17T12:32:16;6.75;;;2.50;;
72761;SDS011;60886;55.034;73.150;2022-07-17T12:34:47;6.07;;;2.55;;
72761;SDS011;60886;55.034;73.150;2022-07-17T12:37:16;8.35;;;2.40;;
72761;SDS011;60886;55.034;73.150;2022-07-17T12:39:54;6.68;;;2.40;;
72761;SDS011;60886;55.034;73.150;2022-07-17T12:42:21;6.85;;;2.55;;
72761;SDS011;60886;55.034;73.150;2022-07-17T12:44:48;5.72;;;2.50;;
72761;SDS011;60886;55.034;73.150;2022-07-17T12:47:14;5.60;;;2.25;;
72761;SDS011;60886;55.034;73.150;2022-07-17T12:49:52;6.90;;;2.70;;
72761;SDS011;60886;55.034;73.150;2022-07-17T12:52:18;7.18;;;2.50;;
72761;SDS011;60886;55.034;73.150;2022-07-17T12:54:44;6.63;;;2.40;;
72761;SDS011;60886;55.034;73.150;2022-07-17T12:57:11;5.97;;;2.58;;
72761;SDS011;60886;55.034;73.150;2022-07-17T12:59:42;8.32;;;2.40;;
72761;SDS011;60886;55.034;73.150;2022-07-17T13:02:09;7.45;;;2.42;;
72761;SDS011;60886;55.034;73.150;2022-07-17T13:04:35;6.32;;;2.50;;
72761;SDS011;60886;55.034;73.150;2022-07-17T13:07:02;6.53;;;2.60;;
72761;SDS011;60886;55.034;73.150;2022-07-17T13:09:29;8.27;;;3.22;;
72761;SDS011;60886;55.034;73.150;2022-07-17T13:11:55;7.32;;;2.60;;
72761;SDS011;60886;55.034;73.150;2022-07-17T13:14:22;5.90;;;2.55;;
72761;SDS011;60886;55.034;73.150;2022-07-17T13:16:48;6.65;;;2.70;;
72761;SDS011;60886;55.034;73.150;2022-07-17T13:19:14;6.22;;;2.65;;
72761;SDS011;60886;55.034;73.150;2022-07-17T13:21:41;6.18;;;2.70;;
72761;SDS011;60886;55.034;73.150;2022-07-17T13:24:17;5.20;;;2.53;;
72761;SDS011;60886;55.034;73.150;2022-07-17T13:26:49;8.10;;;2.80;;
72761;SDS011;60886;55.034;73.150;2022-07-17T13:29:16;7.18;;;2.90;;
72761;SDS011;60886;55.034;73.150;2022-07-17T13:31:42;6.30;;;2.65;;
72761;SDS011;60886;55.034;73.150;2022-07-17T13:34:14;5.95;;;2.60;;
72761;SDS011;60886;55.034;73.150;2022-07-17T13:36:41;7.57;;;2.97;;
72761;SDS011;60886;55.034;73.150;2022-07-17T13:39:07;6.10;;;2.83;;
72761;SDS011;60886;55.034;73.150;2022-07-17T13:41:33;6.40;;;2.60;;
72761;SDS011;60886;55.034;73.150;2022-07-17T13:44:11;6.57;;;2.53;;
72761;SDS011;60886;55.034;73.150;2022-07-17T13:46:47;7.50;;;3.20;;
72761;SDS011;60886;55.034;73.150;2022-07-17T13:49:13;6.72;;;2.72;;
72761;SDS011;60886;55.034;73.150;2022-07-17T13:51:44;6.22;;;2.58;;
72761;SDS011;60886;55.034;73.150;2022-07-17T13:54:11;6.88;;;2.60;;
72761;SDS011;60886;55.034;73.150;2022-07-17T13:56:38;8.93;;;3.10;;
72761;SDS011;60886;55.034;73.150;2022-07-17T13:59:05;6.68;;;2.92;;
72761;SDS011;60886;55.034;73.150;2022-07-17T14:01:31;9.32;;;4.50;;
72761;SDS011;60886;55.034;73.150;2022-07-17T14:03:59;5.90;;;2.72;;
72761;SDS011;60886;55.034;73.150;2022-07-17T14:06:26;5.97;;;2.80;;
72761;SDS011;60886;55.034;73.150;2022-07-17T14:08:58;6.72;;;2.90;;
72761;SDS011;60886;55.034;73.150;2022-07-17T14:11:24;7.65;;;3.13;;
72761;SDS011;60886;55.034;73.150;2022-07-17T14:13:51;8.30;;;2.92;;
72761;SDS011;60886;55.034;73.150;2022-07-17T14:16:17;5.78;;;2.72;;
72761;SDS011;60886;55.034;73.150;2022-07-17T14:18:49;6.55;;;2.90;;
72761;SDS011;60886;55.034;73.150;2022-07-17T14:21:27;7.03;;;2.95;;
72761;SDS011;60886;55.034;73.150;2022-07-17T14:23:59;6.72;;;2.85;;
72761;SDS011;60886;55.034;73.150;2022-07-17T14:26:31;6.68;;;3.00;;
72761;SDS011;60886;55.034;73.150;2022-07-17T14:28:58;8.18;;;3.80;;
72761;SDS011;60886;55.034;73.150;2022-07-17T14:31:35;6.35;;;3.00;;
72761;SDS011;60886;55.034;73.150;2022-07-17T14:34:02;6.65;;;3.20;;
72761;SDS011;60886;55.034;73.150;2022-07-17T14:36:28;7.80;;;4.30;;
72761;SDS011;60886;55.034;73.150;2022-07-17T14:38:55;7.85;;;3.17;;
72761;SDS011;60886;55.034;73.150;2022-07-17T14:41:26;6.50;;;2.95;;
72761;SDS011;60886;55.034;73.150;2022-07-17T14:44:09;8.02;;;3.30;;
72761;SDS011;60886;55.034;73.150;2022-07-17T14:46:49;7.82;;;3.20;;
72761;SDS011;60886;55.034;73.150;2022-07-17T14:49:15;8.90;;;3.33;;
72761;SDS011;60886;55.034;73.150;2022-07-17T14:51:42;9.02;;;3.67;;
72761;SDS011;60886;55.034;73.150;2022-07-17T14:54:08;9.27;;;3.80;;
72761;SDS011;60886;55.034;73.150;2022-07-17T14:56:35;9.40;;;4.65;;
72761;SDS011;60886;55.034;73.150;2022-07-17T14:59:01;10.05;;;4.45;;
72761;SDS011;60886;55.034;73.150;2022-07-17T15:01:27;9.68;;;4.57;;
72761;SDS011;60886;55.034;73.150;2022-07-17T15:03:54;9.00;;;4.50;;
72761;SDS011;60886;55.034;73.150;2022-07-17T15:06:20;12.07;;;5.07;;